sensor_id;sensor_type;location;lat;lon;timestamp;P1;durP1;ratioP1;P2;durP2;ratioP2
9960;SDS011;5021;51.506;11.320;2023-11-22T00:00:08;10.07;;;6.30;;
9960;SDS011;5021;51.506;11.320;2023-11-22T00:02:35;9.97;;;7.13;;
9960;SDS011;5021;51.506;11.320;2023-11-22T00:05:01;8.80;;;6.60;;
9960;SDS011;5021;51.506;11.320;2023-11-22T00:07:27;9.90;;;7.27;;
9960;SDS011;5021;51.506;11.320;2023-11-22T00:09:54;9.17;;;7.00;;
9960;SDS011;5021;51.506;11.320;2023-11-22T00:12:20;8.13;;;6.40;;
9960;SDS011;5021;51.506;11.320;2023-11-22T00:14:47;6.73;;;5.87;;
9960;SDS011;5021;51.506;11.320;2023-11-22T00:17:13;7.50;;;5.90;;
9960;SDS011;5021;51.506;11.320;2023-11-22T00:19:39;7.33;;;5.57;;
9960;SDS011;5021;51.506;11.320;2023-11-22T00:22:05;8.07;;;6.00;;
9960;SDS011;5021;51.506;11.320;2023-11-22T00:24:38;7.13;;;6.13;;
9960;SDS011;5021;51.506;11.320;2023-11-22T00:27:04;8.07;;;5.97;;
9960;SDS011;5021;51.506;11.320;2023-11-22T00:29:30;7.80;;;6.17;;
9960;SDS011;5021;51.506;11.320;2023-11-22T00:31:57;6.70;;;5.67;;
9960;SDS011;5021;51.506;11.320;2023-11-22T00:34:22;8.73;;;6.30;;
9960;SDS011;5021;51.506;11.320;2023-11-22T00:36:48;6.53;;;5.13;;
9960;SDS011;5021;51.506;11.320;2023-11-22T00:39:15;8.47;;;5.50;;
9960;SDS011;5021;51.506;11.320;2023-11-22T00:41:41;7.57;;;6.30;;
9960;SDS011;5021;51.506;11.320;2023-11-22T00:44:07;7.70;;;6.03;;
9960;SDS011;5021;51.506;11.320;2023-11-22T00:46:33;7.97;;;6.30;;
9960;SDS011;5021;51.506;11.320;2023-11-22T00:48:59;7.73;;;5.63;;
9960;SDS011;5021;51.506;11.320;2023-11-22T00:51:25;7.27;;;5.90;;
9960;SDS011;5021;51.506;11.320;2023-11-22T00:53:52;8.60;;;6.20;;
9960;SDS011;5021;51.506;11.320;2023-11-22T00:56:18;8.40;;;5.17;;
9960;SDS011;5021;51.506;11.320;2023-11-22T00:58:43;7.73;;;6.10;;
9960;SDS011;5021;51.506;11.320;2023-11-22T01:01:09;6.83;;;5.60;;
9960;SDS011;5021;51.506;11.320;2023-11-22T01:03:36;9.23;;;5.60;;
9960;SDS011;5021;51.506;11.320;2023-11-22T01:06:02;7.67;;;6.27;;
9960;SDS011;5021;51.506;11.320;2023-11-22T01:08:28;7.57;;;5.90;;
9960;SDS011;5021;51.506;11.320;2023-11-22T01:10:55;8.50;;;5.70;;
9960;SDS011;5021;51.506;11.320;2023-11-22T01:13:22;6.57;;;5.10;;
9960;SDS011;5021;51.506;11.320;2023-11-22T01:15:48;7.03;;;5.33;;
9960;SDS011;5021;51.506;11.320;2023-11-22T01:18:14;7.47;;;5.47;;
9960;SDS011;5021;51.506;11.320;2023-11-22T01:20:40;7.93;;;5.60;;
9960;SDS011;5021;51.506;11.320;2023-11-22T01:23:06;8.47;;;5.90;;
9960;SDS011;5021;51.506;11.320;2023-11-22T01:25:32;7.20;;;5.40;;
9960;SDS011;5021;51.506;11.320;2023-11-22T01:27:58;6.90;;;5.47;;
9960;SDS011;5021;51.506;11.320;2023-11-22T01:30:24;9.13;;;5.50;;
9960;SDS011;5021;51.506;11.320;2023-11-22T01:32:49;6.77;;;5.77;;
9960;SDS011;5021;51.506;11.320;2023-11-22T01:35:15;8.50;;;5.17;;
9960;SDS011;5021;51.506;11.320;2023-11-22T01:37:41;7.10;;;5.67;;
9960;SDS011;5021;51.506;11.320;2023-11-22T01:40:07;9.13;;;5.53;;
9960;SDS011;5021;51.506;11.320;2023-11-22T01:42:33;7.13;;;5.40;;
9960;SDS011;5021;51.506;11.320;2023-11-22T01:45:02;7.27;;;5.53;;
9960;SDS011;5021;51.506;11.320;2023-11-22T01:47:27;7.87;;;5.33;;
9960;SDS011;5021;51.506;11.320;2023-11-22T01:49:54;7.00;;;4.90;;
9960;SDS011;5021;51.506;11.320;2023-11-22T01:52:22;8.27;;;5.93;;
9960;SDS011;5021;51.506;11.320;2023-11-22T01:54:48;8.07;;;5.67;;
9960;SDS011;5021;51.506;11.320;2023-11-22T01:57:14;7.07;;;5.40;;
9960;SDS011;5021;51.506;11.320;2023-11-22T01:59:40;8.53;;;5.67;;
9960;SDS011;5021;51.506;11.320;2023-11-22T02:02:07;7.10;;;5.30;;
9960;SDS011;5021;51.506;11.320;2023-11-22T02:04:33;7.83;;;5.63;;
9960;SDS011;5021;51.506;11.320;2023-11-22T02:06:59;8.83;;;5.63;;
9960;SDS011;5021;51.506;11.320;2023-11-22T02:09:25;8.20;;;5.27;;
9960;SDS011;5021;51.506;11.320;2023-11-22T02:11:51;7.03;;;5.30;;
9960;SDS011;5021;51.506;11.320;2023-11-22T02:14:17;7.03;;;5.20;;
9960;SDS011;5021;51.506;11.320;2023-11-22T02:16:43;6.97;;;5.40;;
9960;SDS011;5021;51.506;11.320;2023-11-22T02:19:13;6.93;;;5.13;;
9960;SDS011;5021;51.506;11.320;2023-11-22T02:21:40;6.90;;;5.10;;
9960;SDS011;5021;51.506;11.320;2023-11-22T02:24:06;6.73;;;5.03;;
9960;SDS011;5021;51.506;11.320;2023-11-22T02:26:32;7.50;;;5.40;;
9960;SDS011;5021;51.506;11.320;2023-11-22T02:28:58;7.00;;;5.73;;
9960;SDS011;5021;51.506;11.320;2023-11-22T02:31:24;8.33;;;5.50;;
9960;SDS011;5021;51.506;11.320;2023-11-22T02:33:52;7.47;;;5.27;;
9960;SDS011;5021;51.506;11.320;2023-11-22T02:36:18;7.67;;;5.40;;
9960;SDS011;5021;51.506;11.320;2023-11-22T02:38:44;7.73;;;5.57;;
9960;SDS011;5021;51.506;11.320;2023-11-22T02:41:11;8.17;;;5.50;;
9960;SDS011;5021;51.506;11.320;2023-11-22T02:43:38;6.83;;;4.93;;
9960;SDS011;5021;51.506;11.320;2023-11-22T02:46:06;7.40;;;5.30;;
9960;SDS011;5021;51.506;11.320;2023-11-22T02:48:33;7.20;;;5.30;;
9960;SDS011;5021;51.506;11.320;2023-11-22T02:50:59;6.57;;;5.17;;
9960;SDS011;5021;51.506;11.320;2023-11-22T02:53:25;5.93;;;5.00;;
9960;SDS011;5021;51.506;11.320;2023-11-22T02:55:52;7.60;;;4.97;;
9960;SDS011;5021;51.506;11.320;2023-11-22T02:58:20;8.60;;;5.53;;
9960;SDS011;5021;51.506;11.320;2023-11-22T03:00:46;8.30;;;5.33;;
9960;SDS011;5021;51.506;11.320;2023-11-22T03:03:13;6.83;;;4.80;;
9960;SDS011;5021;51.506;11.320;2023-11-22T03:05:39;7.90;;;5.00;;
9960;SDS011;5021;51.506;11.320;2023-11-22T03:08:05;7.60;;;5.03;;
9960;SDS011;5021;51.506;11.320;2023-11-22T03:10:35;6.97;;;5.30;;
9960;SDS011;5021;51.506;11.320;2023-11-22T03:13:01;7.57;;;5.27;;
9960;SDS011;5021;51.506;11.320;2023-11-22T03:15:27;7.33;;;5.10;;
9960;SDS011;5021;51.506;11.320;2023-11-22T03:17:53;6.13;;;5.10;;
9960;SDS011;5021;51.506;11.320;2023-11-22T03:20:19;7.70;;;5.00;;
9960;SDS011;5021;51.506;11.320;2023-11-22T03:22:46;7.33;;;5.53;;
9960;SDS011;5021;51.506;11.320;2023-11-22T03:25:15;6.77;;;4.73;;
9960;SDS011;5021;51.506;11.320;2023-11-22T03:27:41;7.67;;;5.20;;
9960;SDS011;5021;51.506;11.320;2023-11-22T03:30:07;6.83;;;5.23;;
9960;SDS011;5021;51.506;11.320;2023-11-22T03:32:36;6.87;;;4.97;;
9960;SDS011;5021;51.506;11.320;2023-11-22T03:35:04;6.63;;;5.10;;
9960;SDS011;5021;51.506;11.320;2023-11-22T03:37:30;8.90;;;5.00;;
9960;SDS011;5021;51.506;11.320;2023-11-22T03:39:56;5.80;;;4.50;;
9960;SDS011;5021;51.506;11.320;2023-11-22T03:42:22;7.40;;;4.67;;
9960;SDS011;5021;51.506;11.320;2023-11-22T03:44:48;6.93;;;4.70;;
9960;SDS011;5021;51.506;11.320;2023-11-22T03:47:14;6.77;;;4.50;;
9960;SDS011;5021;51.506;11.320;2023-11-22T03:49:41;5.33;;;4.27;;
9960;SDS011;5021;51.506;11.320;2023-11-22T03:52:07;7.13;;;5.13;;
9960;SDS011;5021;51.506;11.320;2023-11-22T03:54:34;6.97;;;5.00;;
9960;SDS011;5021;51.506;11.320;2023-11-22T03:57:00;7.27;;;4.70;;
9960;SDS011;5021;51.506;11.320;2023-11-22T03:59:27;5.90;;;4.40;;
9960;SDS011;5021;51.506;11.320;2023-11-22T04:01:52;6.67;;;4.97;;
9960;SDS011;5021;51.506;11.320;2023-11-22T04:04:19;5.67;;;4.40;;
9960;SDS011;5021;51.506;11.320;2023-11-22T04:06:45;7.03;;;4.90;;
9960;SDS011;5021;51.506;11.320;2023-11-22T04:09:11;6.20;;;4.80;;
9960;SDS011;5021;51.506;11.320;2023-11-22T04:11:37;6.37;;;5.10;;
9960;SDS011;5021;51.506;11.320;2023-11-22T04:14:03;6.23;;;4.60;;
9960;SDS011;5021;51.506;11.320;2023-11-22T04:16:29;4.97;;;4.47;;
9960;SDS011;5021;51.506;11.320;2023-11-22T04:18:55;7.13;;;5.50;;
9960;SDS011;5021;51.506;11.320;2023-11-22T04:21:22;6.50;;;4.83;;
9960;SDS011;5021;51.506;11.320;2023-11-22T04:23:49;7.40;;;5.03;;
9960;SDS011;5021;51.506;11.320;2023-11-22T04:26:14;8.07;;;5.00;;
9960;SDS011;5021;51.506;11.320;2023-11-22T04:28:41;6.33;;;4.97;;
9960;SDS011;5021;51.506;11.320;2023-11-22T04:31:07;7.43;;;5.17;;
9960;SDS011;5021;51.506;11.320;2023-11-22T04:33:36;7.03;;;5.00;;
9960;SDS011;5021;51.506;11.320;2023-11-22T04:36:02;7.10;;;5.33;;
9960;SDS011;5021;51.506;11.320;2023-11-22T04:38:28;6.13;;;4.77;;
9960;SDS011;5021;51.506;11.320;2023-11-22T04:40:54;5.93;;;4.80;;
9960;SDS011;5021;51.506;11.320;2023-11-22T04:43:20;7.30;;;5.03;;
9960;SDS011;5021;51.506;11.320;2023-11-22T04:45:46;5.03;;;4.30;;
9960;SDS011;5021;51.506;11.320;2023-11-22T04:48:12;8.13;;;4.60;;
9960;SDS011;5021;51.506;11.320;2023-11-22T04:50:40;6.63;;;4.60;;
9960;SDS011;5021;51.506;11.320;2023-11-22T04:53:06;6.73;;;4.57;;
9960;SDS011;5021;51.506;11.320;2023-11-22T04:55:32;6.87;;;5.07;;
9960;SDS011;5021;51.506;11.320;2023-11-22T04:57:58;6.33;;;4.83;;
9960;SDS011;5021;51.506;11.320;2023-11-22T05:00:24;8.73;;;5.30;;
9960;SDS011;5021;51.506;11.320;2023-11-22T05:02:50;6.83;;;5.20;;
9960;SDS011;5021;51.506;11.320;2023-11-22T05:05:16;6.50;;;4.83;;
9960;SDS011;5021;51.506;11.320;2023-11-22T05:07:42;8.17;;;6.47;;
9960;SDS011;5021;51.506;11.320;2023-11-22T05:10:09;9.57;;;5.93;;
9960;SDS011;5021;51.506;11.320;2023-11-22T05:12:35;8.03;;;5.20;;
9960;SDS011;5021;51.506;11.320;2023-11-22T05:15:02;6.70;;;5.00;;
9960;SDS011;5021;51.506;11.320;2023-11-22T05:17:28;8.57;;;5.40;;
9960;SDS011;5021;51.506;11.320;2023-11-22T05:19:54;7.07;;;5.43;;
9960;SDS011;5021;51.506;11.320;2023-11-22T05:22:20;6.70;;;5.30;;
9960;SDS011;5021;51.506;11.320;2023-11-22T05:24:46;7.47;;;5.27;;
9960;SDS011;5021;51.506;11.320;2023-11-22T05:27:12;6.80;;;4.97;;
9960;SDS011;5021;51.506;11.320;2023-11-22T05:29:38;6.00;;;4.73;;
9960;SDS011;5021;51.506;11.320;2023-11-22T05:32:04;6.30;;;4.87;;
9960;SDS011;5021;51.506;11.320;2023-11-22T05:34:31;6.47;;;4.90;;
9960;SDS011;5021;51.506;11.320;2023-11-22T05:36:58;6.73;;;4.87;;
9960;SDS011;5021;51.506;11.320;2023-11-22T05:39:24;6.70;;;5.07;;
9960;SDS011;5021;51.506;11.320;2023-11-22T05:41:50;7.60;;;5.00;;
9960;SDS011;5021;51.506;11.320;2023-11-22T05:44:16;6.23;;;4.73;;
9960;SDS011;5021;51.506;11.320;2023-11-22T05:46:42;6.30;;;4.87;;
9960;SDS011;5021;51.506;11.320;2023-11-22T05:49:08;6.27;;;4.80;;
9960;SDS011;5021;51.506;11.320;2023-11-22T05:51:35;6.83;;;5.07;;
9960;SDS011;5021;51.506;11.320;2023-11-22T05:54:02;5.63;;;4.60;;
9960;SDS011;5021;51.506;11.320;2023-11-22T05:56:28;6.57;;;4.83;;
9960;SDS011;5021;51.506;11.320;2023-11-22T05:58:54;6.47;;;4.50;;
9960;SDS011;5021;51.506;11.320;2023-11-22T06:01:20;7.40;;;5.13;;
9960;SDS011;5021;51.506;11.320;2023-11-22T06:03:46;8.43;;;6.17;;
9960;SDS011;5021;51.506;11.320;2023-11-22T06:06:13;12.10;;;7.80;;
9960;SDS011;5021;51.506;11.320;2023-11-22T06:08:39;11.10;;;7.90;;
9960;SDS011;5021;51.506;11.320;2023-11-22T06:11:05;9.70;;;6.87;;
9960;SDS011;5021;51.506;11.320;2023-11-22T06:13:32;10.70;;;7.57;;
9960;SDS011;5021;51.506;11.320;2023-11-22T06:15:58;9.50;;;7.07;;
9960;SDS011;5021;51.506;11.320;2023-11-22T06:18:25;8.50;;;7.13;;
9960;SDS011;5021;51.506;11.320;2023-11-22T06:20:55;12.07;;;7.80;;
9960;SDS011;5021;51.506;11.320;2023-11-22T06:23:21;8.20;;;6.70;;
9960;SDS011;5021;51.506;11.320;2023-11-22T06:25:47;10.37;;;7.23;;
9960;SDS011;5021;51.506;11.320;2023-11-22T06:28:13;10.57;;;7.33;;
9960;SDS011;5021;51.506;11.320;2023-11-22T06:30:39;10.77;;;8.47;;
9960;SDS011;5021;51.506;11.320;2023-11-22T06:33:05;9.40;;;7.90;;
9960;SDS011;5021;51.506;11.320;2023-11-22T06:35:32;10.07;;;8.00;;
9960;SDS011;5021;51.506;11.320;2023-11-22T06:37:58;9.27;;;7.33;;
9960;SDS011;5021;51.506;11.320;2023-11-22T06:40:24;8.93;;;7.40;;
9960;SDS011;5021;51.506;11.320;2023-11-22T06:42:49;9.33;;;7.47;;
9960;SDS011;5021;51.506;11.320;2023-11-22T06:45:16;9.60;;;7.73;;
9960;SDS011;5021;51.506;11.320;2023-11-22T06:47:42;9.97;;;8.07;;
9960;SDS011;5021;51.506;11.320;2023-11-22T06:50:09;10.47;;;7.17;;
9960;SDS011;5021;51.506;11.320;2023-11-22T06:52:36;9.77;;;7.83;;
9960;SDS011;5021;51.506;11.320;2023-11-22T06:55:03;11.03;;;8.17;;
9960;SDS011;5021;51.506;11.320;2023-11-22T06:57:29;11.20;;;8.00;;
9960;SDS011;5021;51.506;11.320;2023-11-22T06:59:55;9.70;;;7.00;;
9960;SDS011;5021;51.506;11.320;2023-11-22T07:02:21;11.53;;;8.43;;
9960;SDS011;5021;51.506;11.320;2023-11-22T07:04:47;13.23;;;8.80;;
9960;SDS011;5021;51.506;11.320;2023-11-22T07:07:13;11.97;;;9.33;;
9960;SDS011;5021;51.506;11.320;2023-11-22T07:09:43;14.07;;;9.80;;
9960;SDS011;5021;51.506;11.320;2023-11-22T07:12:09;17.97;;;11.60;;
9960;SDS011;5021;51.506;11.320;2023-11-22T07:14:35;13.23;;;10.40;;
9960;SDS011;5021;51.506;11.320;2023-11-22T07:17:01;14.40;;;10.03;;
9960;SDS011;5021;51.506;11.320;2023-11-22T07:19:27;11.87;;;10.00;;
9960;SDS011;5021;51.506;11.320;2023-11-22T07:21:53;14.30;;;10.63;;
9960;SDS011;5021;51.506;11.320;2023-11-22T07:24:19;14.43;;;10.77;;
9960;SDS011;5021;51.506;11.320;2023-11-22T07:26:46;13.37;;;10.83;;
9960;SDS011;5021;51.506;11.320;2023-11-22T07:29:12;15.67;;;10.90;;
9960;SDS011;5021;51.506;11.320;2023-11-22T07:31:38;12.70;;;10.13;;
9960;SDS011;5021;51.506;11.320;2023-11-22T07:34:04;14.63;;;10.23;;
9960;SDS011;5021;51.506;11.320;2023-11-22T07:36:31;13.57;;;11.03;;
9960;SDS011;5021;51.506;11.320;2023-11-22T07:38:57;15.07;;;11.07;;
9960;SDS011;5021;51.506;11.320;2023-11-22T07:41:24;16.57;;;11.40;;
9960;SDS011;5021;51.506;11.320;2023-11-22T07:43:51;15.93;;;11.33;;
9960;SDS011;5021;51.506;11.320;2023-11-22T07:46:18;13.87;;;11.13;;
9960;SDS011;5021;51.506;11.320;2023-11-22T07:48:45;15.90;;;10.87;;
9960;SDS011;5021;51.506;11.320;2023-11-22T07:51:12;14.83;;;10.93;;
9960;SDS011;5021;51.506;11.320;2023-11-22T07:53:41;14.10;;;10.67;;
9960;SDS011;5021;51.506;11.320;2023-11-22T07:56:08;14.70;;;10.70;;
9960;SDS011;5021;51.506;11.320;2023-11-22T07:58:34;13.93;;;10.90;;
9960;SDS011;5021;51.506;11.320;2023-11-22T08:01:00;13.87;;;10.63;;
9960;SDS011;5021;51.506;11.320;2023-11-22T08:03:29;13.70;;;10.33;;
9960;SDS011;5021;51.506;11.320;2023-11-22T08:05:55;14.00;;;10.90;;
9960;SDS011;5021;51.506;11.320;2023-11-22T08:08:21;12.33;;;10.03;;
9960;SDS011;5021;51.506;11.320;2023-11-22T08:10:48;13.40;;;9.80;;
9960;SDS011;5021;51.506;11.320;2023-11-22T08:13:16;14.57;;;10.00;;
9960;SDS011;5021;51.506;11.320;2023-11-22T08:15:44;12.20;;;9.80;;
9960;SDS011;5021;51.506;11.320;2023-11-22T08:18:11;16.10;;;12.10;;
9960;SDS011;5021;51.506;11.320;2023-11-22T08:20:37;13.33;;;9.67;;
9960;SDS011;5021;51.506;11.320;2023-11-22T08:23:03;11.93;;;9.73;;
9960;SDS011;5021;51.506;11.320;2023-11-22T08:25:31;13.93;;;9.83;;
9960;SDS011;5021;51.506;11.320;2023-11-22T08:27:57;13.20;;;10.47;;
9960;SDS011;5021;51.506;11.320;2023-11-22T08:30:23;11.37;;;9.20;;
9960;SDS011;5021;51.506;11.320;2023-11-22T08:32:49;9.03;;;7.57;;
9960;SDS011;5021;51.506;11.320;2023-11-22T08:35:22;10.40;;;7.53;;
9960;SDS011;5021;51.506;11.320;2023-11-22T08:37:51;8.70;;;7.00;;
9960;SDS011;5021;51.506;11.320;2023-11-22T08:40:17;11.40;;;7.80;;
9960;SDS011;5021;51.506;11.320;2023-11-22T08:42:45;15.07;;;10.40;;
9960;SDS011;5021;51.506;11.320;2023-11-22T08:45:11;11.27;;;7.90;;
9960;SDS011;5021;51.506;11.320;2023-11-22T08:47:39;10.70;;;7.57;;
9960;SDS011;5021;51.506;11.320;2023-11-22T08:50:05;10.83;;;7.53;;
9960;SDS011;5021;51.506;11.320;2023-11-22T08:52:31;10.13;;;7.33;;
9960;SDS011;5021;51.506;11.320;2023-11-22T08:54:57;9.20;;;7.70;;
9960;SDS011;5021;51.506;11.320;2023-11-22T08:57:25;10.30;;;7.80;;
9960;SDS011;5021;51.506;11.320;2023-11-22T08:59:51;9.97;;;7.83;;
9960;SDS011;5021;51.506;11.320;2023-11-22T09:02:17;8.90;;;7.47;;
9960;SDS011;5021;51.506;11.320;2023-11-22T09:04:43;9.07;;;7.63;;
9960;SDS011;5021;51.506;11.320;2023-11-22T09:07:09;10.63;;;8.00;;
9960;SDS011;5021;51.506;11.320;2023-11-22T09:09:35;10.47;;;7.67;;
9960;SDS011;5021;51.506;11.320;2023-11-22T09:12:01;8.83;;;7.90;;
9960;SDS011;5021;51.506;11.320;2023-11-22T09:14:27;10.27;;;7.70;;
9960;SDS011;5021;51.506;11.320;2023-11-22T09:16:53;9.93;;;7.93;;
9960;SDS011;5021;51.506;11.320;2023-11-22T09:19:20;10.70;;;8.43;;
9960;SDS011;5021;51.506;11.320;2023-11-22T09:21:46;10.40;;;7.83;;
9960;SDS011;5021;51.506;11.320;2023-11-22T09:24:12;9.20;;;7.20;;
9960;SDS011;5021;51.506;11.320;2023-11-22T09:26:38;11.20;;;8.60;;
9960;SDS011;5021;51.506;11.320;2023-11-22T09:29:04;9.77;;;8.40;;
9960;SDS011;5021;51.506;11.320;2023-11-22T09:31:30;10.43;;;7.90;;
9960;SDS011;5021;51.506;11.320;2023-11-22T09:33:56;10.43;;;7.80;;
9960;SDS011;5021;51.506;11.320;2023-11-22T09:36:22;10.27;;;8.03;;
9960;SDS011;5021;51.506;11.320;2023-11-22T09:38:52;8.80;;;7.73;;
9960;SDS011;5021;51.506;11.320;2023-11-22T09:41:18;11.60;;;8.37;;
9960;SDS011;5021;51.506;11.320;2023-11-22T09:43:44;10.00;;;7.43;;
9960;SDS011;5021;51.506;11.320;2023-11-22T09:46:14;14.53;;;7.73;;
9960;SDS011;5021;51.506;11.320;2023-11-22T09:48:44;10.10;;;7.10;;
9960;SDS011;5021;51.506;11.320;2023-11-22T09:51:23;9.50;;;7.40;;
9960;SDS011;5021;51.506;11.320;2023-11-22T09:53:55;8.80;;;6.80;;
9960;SDS011;5021;51.506;11.320;2023-11-22T09:56:22;9.57;;;7.00;;
9960;SDS011;5021;51.506;11.320;2023-11-22T09:58:49;11.13;;;7.53;;
9960;SDS011;5021;51.506;11.320;2023-11-22T10:01:19;10.13;;;7.43;;
9960;SDS011;5021;51.506;11.320;2023-11-22T10:03:47;9.80;;;7.00;;
9960;SDS011;5021;51.506;11.320;2023-11-22T10:06:13;8.43;;;6.60;;
9960;SDS011;5021;51.506;11.320;2023-11-22T10:08:40;8.20;;;6.60;;
9960;SDS011;5021;51.506;11.320;2023-11-22T10:11:06;9.57;;;7.10;;
9960;SDS011;5021;51.506;11.320;2023-11-22T10:13:32;7.97;;;6.07;;
9960;SDS011;5021;51.506;11.320;2023-11-22T10:16:12;8.40;;;6.40;;
9960;SDS011;5021;51.506;11.320;2023-11-22T10:18:47;7.83;;;5.83;;
9960;SDS011;5021;51.506;11.320;2023-11-22T10:23:46;8.03;;;6.10;;
9960;SDS011;5021;51.506;11.320;2023-11-22T10:26:16;9.00;;;6.00;;
9960;SDS011;5021;51.506;11.320;2023-11-22T10:28:42;8.93;;;6.07;;
9960;SDS011;5021;51.506;11.320;2023-11-22T10:31:09;8.23;;;6.33;;
9960;SDS011;5021;51.506;11.320;2023-11-22T10:33:42;8.03;;;6.07;;
9960;SDS011;5021;51.506;11.320;2023-11-22T10:36:08;8.70;;;6.50;;
9960;SDS011;5021;51.506;11.320;2023-11-22T10:38:34;8.80;;;6.60;;
9960;SDS011;5021;51.506;11.320;2023-11-22T10:41:03;8.63;;;7.30;;
9960;SDS011;5021;51.506;11.320;2023-11-22T10:43:30;8.70;;;6.47;;
9960;SDS011;5021;51.506;11.320;2023-11-22T10:45:57;9.87;;;6.63;;
9960;SDS011;5021;51.506;11.320;2023-11-22T10:48:24;8.53;;;7.10;;
9960;SDS011;5021;51.506;11.320;2023-11-22T10:50:50;9.43;;;6.90;;
9960;SDS011;5021;51.506;11.320;2023-11-22T10:53:24;9.90;;;6.40;;
9960;SDS011;5021;51.506;11.320;2023-11-22T10:55:53;8.47;;;6.70;;
9960;SDS011;5021;51.506;11.320;2023-11-22T10:58:22;8.43;;;6.47;;
9960;SDS011;5021;51.506;11.320;2023-11-22T11:00:50;9.00;;;6.53;;
9960;SDS011;5021;51.506;11.320;2023-11-22T11:03:18;8.03;;;6.07;;
9960;SDS011;5021;51.506;11.320;2023-11-22T11:05:49;8.77;;;6.83;;
9960;SDS011;5021;51.506;11.320;2023-11-22T11:08:16;7.93;;;6.40;;
9960;SDS011;5021;51.506;11.320;2023-11-22T11:10:45;7.37;;;6.10;;
9960;SDS011;5021;51.506;11.320;2023-11-22T11:13:11;7.73;;;6.43;;
9960;SDS011;5021;51.506;11.320;2023-11-22T11:15:38;8.87;;;6.70;;
9960;SDS011;5021;51.506;11.320;2023-11-22T11:18:05;8.33;;;6.50;;
9960;SDS011;5021;51.506;11.320;2023-11-22T11:23:19;8.97;;;7.33;;
9960;SDS011;5021;51.506;11.320;2023-11-22T11:25:47;8.87;;;6.57;;
9960;SDS011;5021;51.506;11.320;2023-11-22T11:28:13;9.17;;;7.07;;
9960;SDS011;5021;51.506;11.320;2023-11-22T11:30:40;8.43;;;6.23;;
9960;SDS011;5021;51.506;11.320;2023-11-22T11:33:08;7.63;;;6.03;;
9960;SDS011;5021;51.506;11.320;2023-11-22T11:35:37;7.10;;;6.20;;
9960;SDS011;5021;51.506;11.320;2023-11-22T11:38:04;7.80;;;6.20;;
9960;SDS011;5021;51.506;11.320;2023-11-22T11:40:33;6.97;;;6.03;;
9960;SDS011;5021;51.506;11.320;2023-11-22T11:43:00;7.40;;;6.47;;
9960;SDS011;5021;51.506;11.320;2023-11-22T11:45:27;7.90;;;6.87;;
9960;SDS011;5021;51.506;11.320;2023-11-22T11:47:54;6.70;;;5.73;;
9960;SDS011;5021;51.506;11.320;2023-11-22T11:50:20;7.70;;;6.20;;
9960;SDS011;5021;51.506;11.320;2023-11-22T11:52:47;7.30;;;6.27;;
9960;SDS011;5021;51.506;11.320;2023-11-22T11:55:13;9.63;;;6.60;;
9960;SDS011;5021;51.506;11.320;2023-11-22T11:57:40;8.83;;;6.93;;
9960;SDS011;5021;51.506;11.320;2023-11-22T12:00:07;7.77;;;6.47;;
9960;SDS011;5021;51.506;11.320;2023-11-22T12:02:34;8.20;;;6.90;;
9960;SDS011;5021;51.506;11.320;2023-11-22T12:05:00;7.63;;;6.20;;
9960;SDS011;5021;51.506;11.320;2023-11-22T12:07:33;6.97;;;5.90;;
9960;SDS011;5021;51.506;11.320;2023-11-22T12:09:59;7.93;;;6.53;;
9960;SDS011;5021;51.506;11.320;2023-11-22T12:12:25;7.97;;;6.30;;
9960;SDS011;5021;51.506;11.320;2023-11-22T12:14:51;9.27;;;6.90;;
9960;SDS011;5021;51.506;11.320;2023-11-22T12:17:17;9.27;;;6.57;;
9960;SDS011;5021;51.506;11.320;2023-11-22T12:19:43;8.03;;;6.83;;
9960;SDS011;5021;51.506;11.320;2023-11-22T12:22:09;9.23;;;6.70;;
9960;SDS011;5021;51.506;11.320;2023-11-22T12:24:37;7.93;;;6.73;;
9960;SDS011;5021;51.506;11.320;2023-11-22T12:27:03;8.03;;;6.77;;
9960;SDS011;5021;51.506;11.320;2023-11-22T12:29:31;8.50;;;6.90;;
9960;SDS011;5021;51.506;11.320;2023-11-22T12:31:57;7.53;;;6.07;;
9960;SDS011;5021;51.506;11.320;2023-11-22T12:34:23;9.00;;;7.00;;
9960;SDS011;5021;51.506;11.320;2023-11-22T12:36:50;8.50;;;6.10;;
9960;SDS011;5021;51.506;11.320;2023-11-22T12:39:16;8.77;;;7.00;;
9960;SDS011;5021;51.506;11.320;2023-11-22T12:41:52;7.60;;;6.63;;
9960;SDS011;5021;51.506;11.320;2023-11-22T12:44:19;8.20;;;6.90;;
9960;SDS011;5021;51.506;11.320;2023-11-22T12:46:46;9.30;;;7.00;;
9960;SDS011;5021;51.506;11.320;2023-11-22T12:49:18;9.50;;;7.47;;
9960;SDS011;5021;51.506;11.320;2023-11-22T12:51:48;9.37;;;7.57;;
9960;SDS011;5021;51.506;11.320;2023-11-22T12:54:14;8.97;;;7.20;;
9960;SDS011;5021;51.506;11.320;2023-11-22T12:56:40;8.33;;;7.23;;
9960;SDS011;5021;51.506;11.320;2023-11-22T12:59:06;9.33;;;7.27;;
9960;SDS011;5021;51.506;11.320;2023-11-22T13:01:33;9.80;;;7.70;;
9960;SDS011;5021;51.506;11.320;2023-11-22T13:04:00;12.00;;;8.57;;
9960;SDS011;5021;51.506;11.320;2023-11-22T13:06:26;10.80;;;7.80;;
9960;SDS011;5021;51.506;11.320;2023-11-22T13:08:52;9.67;;;7.20;;
9960;SDS011;5021;51.506;11.320;2023-11-22T13:11:18;8.93;;;7.53;;
9960;SDS011;5021;51.506;11.320;2023-11-22T13:13:44;10.33;;;7.53;;
9960;SDS011;5021;51.506;11.320;2023-11-22T13:16:11;10.10;;;8.10;;
9960;SDS011;5021;51.506;11.320;2023-11-22T13:18:38;11.60;;;7.80;;
9960;SDS011;5021;51.506;11.320;2023-11-22T13:21:05;8.83;;;7.30;;
9960;SDS011;5021;51.506;11.320;2023-11-22T13:23:31;9.67;;;7.57;;
9960;SDS011;5021;51.506;11.320;2023-11-22T13:25:58;9.63;;;8.10;;
9960;SDS011;5021;51.506;11.320;2023-11-22T13:28:24;9.80;;;7.67;;
9960;SDS011;5021;51.506;11.320;2023-11-22T13:30:50;8.73;;;7.30;;
9960;SDS011;5021;51.506;11.320;2023-11-22T13:33:16;9.33;;;7.30;;
9960;SDS011;5021;51.506;11.320;2023-11-22T13:35:43;9.43;;;7.87;;
9960;SDS011;5021;51.506;11.320;2023-11-22T13:38:09;10.93;;;8.20;;
9960;SDS011;5021;51.506;11.320;2023-11-22T13:40:36;11.07;;;8.40;;
9960;SDS011;5021;51.506;11.320;2023-11-22T13:43:04;9.83;;;7.87;;
9960;SDS011;5021;51.506;11.320;2023-11-22T13:45:31;9.73;;;7.97;;
9960;SDS011;5021;51.506;11.320;2023-11-22T13:47:58;9.50;;;7.70;;
9960;SDS011;5021;51.506;11.320;2023-11-22T13:50:29;9.57;;;7.77;;
9960;SDS011;5021;51.506;11.320;2023-11-22T13:52:55;10.43;;;7.50;;
9960;SDS011;5021;51.506;11.320;2023-11-22T13:55:23;10.50;;;7.63;;
9960;SDS011;5021;51.506;11.320;2023-11-22T14:00:16;10.27;;;8.53;;
9960;SDS011;5021;51.506;11.320;2023-11-22T14:02:48;8.80;;;7.50;;
9960;SDS011;5021;51.506;11.320;2023-11-22T14:05:16;10.53;;;8.37;;
9960;SDS011;5021;51.506;11.320;2023-11-22T14:07:42;10.13;;;7.57;;
9960;SDS011;5021;51.506;11.320;2023-11-22T14:10:10;11.27;;;7.53;;
9960;SDS011;5021;51.506;11.320;2023-11-22T14:12:36;8.63;;;7.50;;
9960;SDS011;5021;51.506;11.320;2023-11-22T14:15:03;11.97;;;9.37;;
9960;SDS011;5021;51.506;11.320;2023-11-22T14:17:30;10.40;;;7.57;;
9960;SDS011;5021;51.506;11.320;2023-11-22T14:19:56;9.93;;;7.90;;
9960;SDS011;5021;51.506;11.320;2023-11-22T14:22:23;9.60;;;7.90;;
9960;SDS011;5021;51.506;11.320;2023-11-22T14:24:49;13.43;;;8.50;;
9960;SDS011;5021;51.506;11.320;2023-11-22T14:27:15;11.00;;;7.83;;
9960;SDS011;5021;51.506;11.320;2023-11-22T14:29:42;10.73;;;8.17;;
9960;SDS011;5021;51.506;11.320;2023-11-22T14:32:08;12.27;;;9.60;;
9960;SDS011;5021;51.506;11.320;2023-11-22T14:34:34;21.40;;;16.03;;
9960;SDS011;5021;51.506;11.320;2023-11-22T14:37:01;15.07;;;10.67;;
9960;SDS011;5021;51.506;11.320;2023-11-22T14:39:27;14.23;;;11.60;;
9960;SDS011;5021;51.506;11.320;2023-11-22T14:41:54;11.57;;;8.93;;
9960;SDS011;5021;51.506;11.320;2023-11-22T14:44:20;11.03;;;9.33;;
9960;SDS011;5021;51.506;11.320;2023-11-22T14:46:46;12.97;;;8.77;;
9960;SDS011;5021;51.506;11.320;2023-11-22T14:49:14;10.60;;;8.40;;
9960;SDS011;5021;51.506;11.320;2023-11-22T14:51:40;10.30;;;8.83;;
9960;SDS011;5021;51.506;11.320;2023-11-22T14:54:06;13.00;;;7.97;;
9960;SDS011;5021;51.506;11.320;2023-11-22T14:56:32;11.60;;;8.67;;
9960;SDS011;5021;51.506;11.320;2023-11-22T14:58:59;10.40;;;8.83;;